Time;durP1;ratioP1;P1;durP2;ratioP2;P2;SDS_P1;SDS_P2;PMS_P1;PMS_P2;Temp;Humidity;BMP_temperature;BMP_pressure;BME280_temperature;BME280_humidity;BME280_pressure;Samples;Min_cycle;Max_cycle;Signal;HPM_P1;HPM_P2
2021/08/04 00:02:18;;;;;;;;;;;26.50;97.00;;;;;;1936206;73;20237;-87
2021/08/04 00:04:48;;;;;;;;;;;26.40;96.90;;;;;;1935204;73;20136;-88
2021/08/04 00:07:18;;;;;;;;;;;26.40;96.90;;;;;;1936897;73;20265;-89
2021/08/04 00:09:48;;;;;;;;;;;26.50;96.70;;;;;;1935978;72;20200;-88
2021/08/04 00:12:26;;;;;;;;;;;26.50;96.60;;;;;;1939354;72;20753;-88
2021/08/04 00:14:53;;;;;;;;;;;26.50;96.60;;;;;;1943660;72;20162;-89
2021/08/04 00:17:23;;;;;;;;;;;26.50;96.70;;;;;;1884052;74;20514;-88
2021/08/04 00:20:01;;;;;;;;;;;26.50;96.60;;;;;;1870420;75;20221;-89
2021/08/04 00:22:35;;;;;;;;;;;26.50;96.60;;;;;;1837721;75;20189;-87
2021/08/04 00:25:06;;;;;;;;;;;26.50;96.70;;;;;;1868772;75;20208;-89
2021/08/04 00:27:37;;;;;;;;;;;26.60;96.50;;;;;;1856970;75;20177;-89
2021/08/04 00:30:07;;;;;;;;;;;26.60;96.50;;;;;;1875184;75;20203;-88
2021/08/04 00:32:36;;;;;;;;;;;26.60;96.30;;;;;;1881790;75;20406;-88
2021/08/04 00:35:21;;;;;;;;;;;26.60;96.30;;;;;;1880985;75;20554;-88
2021/08/04 00:37:45;;;;;;;;;;;26.60;96.20;;;;;;1875225;75;20172;-89
2021/08/04 00:40:16;;;;;;;;;;;26.70;96.20;;;;;;1862918;75;20383;-89
2021/08/04 00:42:47;;;;;;;;;;;26.70;96.20;;;;;;1857071;75;20191;-89
2021/08/04 00:45:18;;;;;;;;;;;26.70;96.10;;;;;;1872228;75;20215;-88
2021/08/04 00:47:47;;;;;;;;;;;26.70;96.00;;;;;;1878400;75;20424;-88
2021/08/04 00:50:23;;;;;;;;;;;26.70;96.00;;;;;;1879106;75;20180;-88
2021/08/04 00:52:50;;;;;;;;;;;26.80;96.10;;;;;;1865690;75;20255;-89
2021/08/04 00:55:21;;;;;;;;;;;26.80;95.90;;;;;;1866508;75;20662;-88
2021/08/04 00:57:51;;;;;;;;;;;26.80;96.10;;;;;;1878320;75;20236;-85
2021/08/04 01:00:21;;;;;;;;;;;26.90;96.00;;;;;;1878909;75;20271;-87
2021/08/04 01:03:10;;;;;;;;;;;27.00;95.50;;;;;;1866849;75;20255;-87
2021/08/04 01:06:03;;;;;;;;;;;27.10;95.30;;;;;;1780127;78;20246;-88
2021/08/04 01:08:26;;;;;;;;;;;27.10;95.30;;;;;;1865941;75;20307;-88
2021/08/04 01:10:55;;;;;;;;;;;27.20;95.40;;;;;;1876570;75;20202;-87
2021/08/04 01:13:29;;;;;;;;;;;27.30;95.10;;;;;;1879867;75;20166;-88
2021/08/04 01:16:10;;;;;;;;;;;27.30;94.80;;;;;;1882351;75;20212;-87
2021/08/04 01:18:39;;;;;;;;;;;27.50;94.50;;;;;;1874234;75;20657;-87
2021/08/04 01:21:09;;;;;;;;;;;27.60;94.30;;;;;;1871356;75;20348;-88
2021/08/04 01:23:40;;;;;;;;;;;27.70;94.10;;;;;;1888163;75;20194;-88
2021/08/04 01:26:15;;;;;;;;;;;27.80;93.80;;;;;;1887598;75;20178;-88
2021/08/04 01:28:50;;;;;;;;;;;27.80;93.70;;;;;;1886370;75;20193;-86
2021/08/04 01:31:22;;;;;;;;;;;27.90;93.30;;;;;;1882592;75;20382;-89
2021/08/04 01:33:55;;;;;;;;;;;27.90;93.20;;;;;;1875515;75;20203;-78
2021/08/04 01:36:25;;;;;;;;;;;28.00;93.20;;;;;;1877689;75;20302;-79
2021/08/04 01:38:57;;;;;;;;;;;28.00;93.20;;;;;;1879086;73;20248;-78
2021/08/04 01:41:28;;;;;;;;;;;28.10;93.10;;;;;;1935408;72;20698;-77
2021/08/04 01:43:58;;;;;;;;;;;28.10;93.00;;;;;;1930214;72;20207;-78
2021/08/04 01:46:28;;;;;;;;;;;28.10;93.00;;;;;;1937856;72;20203;-76
2021/08/04 01:48:59;;;;;;;;;;;28.30;93.10;;;;;;1935075;72;20706;-78
2021/08/04 01:51:31;;;;;;;;;;;28.30;92.80;;;;;;1937144;73;20175;-78
2021/08/04 01:54:03;;;;;;;;;;;28.40;92.50;;;;;;1936773;72;20185;-76
2021/08/04 01:56:33;;;;;;;;;;;28.40;92.30;;;;;;1940077;72;20300;-78
2021/08/04 01:59:05;;;;;;;;;;;28.40;92.30;;;;;;1935400;72;20194;-76
2021/08/04 02:01:39;;;;;;;;;;;28.50;92.30;;;;;;1940190;72;20260;-78
2021/08/04 02:04:07;;;;;;;;;;;28.50;92.50;;;;;;1932987;72;20245;-77
2021/08/04 02:06:40;;;;;;;;;;;28.50;91.80;;;;;;1937961;72;20222;-77
2021/08/04 02:09:11;;;;;;;;;;;28.60;91.70;;;;;;1937029;72;20205;-77
2021/08/04 02:11:42;;;;;;;;;;;28.70;91.30;;;;;;1937055;72;20177;-76
2021/08/04 02:14:13;;;;;;;;;;;28.80;91.30;;;;;;1943296;72;20195;-78
2021/08/04 02:16:44;;;;;;;;;;;29.00;91.10;;;;;;1941793;72;20156;-76
2021/08/04 02:19:15;;;;;;;;;;;29.10;90.60;;;;;;1941571;72;20156;-76
2021/08/04 02:21:46;;;;;;;;;;;29.10;90.70;;;;;;1944249;72;20185;-77
2021/08/04 02:24:16;;;;;;;;;;;29.10;90.70;;;;;;1941337;72;20234;-80
2021/08/04 02:26:47;;;;;;;;;;;29.20;90.70;;;;;;1937065;72;20518;-78
2021/08/04 02:29:19;;;;;;;;;;;29.20;90.70;;;;;;1944424;72;20139;-78
2021/08/04 02:31:49;;;;;;;;;;;29.40;90.30;;;;;;1941205;72;20176;-78
2021/08/04 02:34:19;;;;;;;;;;;29.40;90.40;;;;;;1941391;72;20205;-78
2021/08/04 02:36:49;;;;;;;;;;;29.60;90.20;;;;;;1938953;72;20203;-77
2021/08/04 02:39:22;;;;;;;;;;;29.70;89.30;;;;;;1902750;73;20207;-77
2021/08/04 02:41:56;;;;;;;;;;;29.90;88.60;;;;;;1879632;75;20126;-77
2021/08/04 02:44:22;;;;;;;;;;;30.00;88.50;;;;;;1880055;75;20167;-76
2021/08/04 02:46:52;;;;;;;;;;;30.10;87.40;;;;;;1881803;75;20178;-77
2021/08/04 02:49:22;;;;;;;;;;;30.10;87.10;;;;;;1880685;75;20164;-77
2021/08/04 02:51:52;;;;;;;;;;;30.10;88.40;;;;;;1884014;75;20184;-78
2021/08/04 02:54:21;;;;;;;;;;;30.10;87.30;;;;;;1910568;73;20177;-77
2021/08/04 02:56:51;;;;;;;;;;;30.10;88.10;;;;;;1878245;75;20161;-77
2021/08/04 02:59:25;;;;;;;;;;;30.10;86.40;;;;;;1879062;75;20270;-79
2021/08/04 03:01:57;;;;;;;;;;;30.00;85.90;;;;;;1865891;75;20264;-76
2021/08/04 03:04:30;;;;;;;;;;;30.00;85.40;;;;;;1875181;76;20208;-77
2021/08/04 03:07:00;;;;;;;;;;;30.00;85.30;;;;;;1851697;76;20199;-77
2021/08/04 03:09:30;;;;;;;;;;;30.00;85.10;;;;;;1855241;76;20147;-75
2021/08/04 03:11:59;;;;;;;;;;;30.10;85.10;;;;;;1885090;76;20194;-77
2021/08/04 03:14:32;;;;;;;;;;;30.10;85.30;;;;;;1881775;76;20315;-76
2021/08/04 03:17:07;;;;;;;;;;;30.20;84.60;;;;;;1871013;76;20184;-78
2021/08/04 03:19:50;;;;;;;;;;;;;;;;;;;;;
2021/08/04 03:22:27;;;;;;;;;;;30.40;84.00;;;;;;1837883;75;21048;-77
2021/08/04 03:25:38;;;;;;;;;;;30.50;83.80;;;;;;1871958;75;20194;-78
2021/08/04 03:27:32;;;;;;;;;;;30.60;83.80;;;;;;1850538;75;20232;-81
2021/08/04 03:30:15;;;;;;;;;;;30.70;82.80;;;;;;1884415;75;20157;-74
2021/08/04 03:32:46;;;;;;;;;;;30.80;81.70;;;;;;1882205;75;20477;-76
2021/08/04 03:35:16;;;;;;;;;;;30.90;81.40;;;;;;1882455;75;20267;-76
2021/08/04 03:37:46;;;;;;;;;;;31.10;81.00;;;;;;1876445;75;20181;-76
2021/08/04 03:40:31;;;;;;;;;;;31.20;80.80;;;;;;1876791;75;20213;-78
2021/08/04 03:43:07;;;;;;;;;;;31.30;79.80;;;;;;1869805;75;20171;-77
2021/08/04 03:45:37;;;;;;;;;;;31.50;80.00;;;;;;1871195;75;20263;-78
2021/08/04 03:48:08;;;;;;;;;;;31.60;78.60;;;;;;1873548;75;20185;-77
2021/08/04 03:50:37;;;;;;;;;;;31.70;78.80;;;;;;1877217;75;20215;-76
2021/08/04 03:53:07;;;;;;;;;;;31.80;79.30;;;;;;1873814;75;20241;-77
2021/08/04 03:55:36;;;;;;;;;;;31.80;79.50;;;;;;1879034;75;20256;-76
2021/08/04 03:58:06;;;;;;;;;;;31.80;79.10;;;;;;1871389;75;20185;-78
2021/08/04 04:00:36;;;;;;;;;;;31.80;79.10;;;;;;1878111;75;20649;-77
2021/08/04 04:03:51;;;;;;;;;;;31.90;78.40;;;;;;1855231;75;20153;-77
2021/08/04 04:06:22;;;;;;;;;;;31.90;77.40;;;;;;1885787;75;20286;-77
2021/08/04 04:08:53;;;;;;;;;;;31.90;78.70;;;;;;1903755;74;20504;-77
2021/08/04 04:11:22;;;;;;;;;;;32.00;77.80;;;;;;1904164;75;20211;-78
2021/08/04 04:13:52;;;;;;;;;;;32.20;76.70;;;;;;1900117;75;20210;-77
2021/08/04 04:16:22;;;;;;;;;;;32.40;76.00;;;;;;1891392;75;20203;-77
2021/08/04 04:18:52;;;;;;;;;;;32.40;75.50;;;;;;1898119;75;20198;-77
2021/08/04 04:21:22;;;;;;;;;;;32.40;75.30;;;;;;1907651;75;20165;-78
2021/08/04 04:23:51;;;;;;;;;;;32.30;76.90;;;;;;1902316;75;20201;-78
2021/08/04 04:26:24;;;;;;;;;;;32.20;77.20;;;;;;1899741;75;20173;-78
2021/08/04 04:28:55;;;;;;;;;;;32.30;77.90;;;;;;1887130;75;20204;-78
2021/08/04 04:31:26;;;;;;;;;;;32.30;78.00;;;;;;1891213;75;20155;-77
2021/08/04 04:34:00;;;;;;;;;;;32.40;77.30;;;;;;1894945;74;20163;-80
2021/08/04 04:36:31;;;;;;;;;;;32.40;76.90;;;;;;1891608;74;20439;-78
2021/08/04 04:39:04;;;;;;;;;;;32.40;76.90;;;;;;1892841;75;20162;-77
2021/08/04 04:41:36;;;;;;;;;;;32.50;76.20;;;;;;1884018;75;20612;-77
2021/08/04 04:44:08;;;;;;;;;;;32.40;76.70;;;;;;1890103;74;20589;-77
2021/08/04 04:46:42;;;;;;;;;;;32.40;75.60;;;;;;1886641;75;20561;-77
2021/08/04 04:49:11;;;;;;;;;;;32.30;75.60;;;;;;1888275;75;20549;-78
2021/08/04 04:51:44;;;;;;;;;;;32.30;75.50;;;;;;1885113;75;20271;-78
2021/08/04 04:54:32;;;;;;;;;;;32.30;75.00;;;;;;1856367;76;20522;-78
2021/08/04 04:57:01;;;;;;;;;;;32.40;75.90;;;;;;1907647;75;20204;-77
2021/08/04 04:59:31;;;;;;;;;;;32.40;76.30;;;;;;1903007;75;20202;-77
2021/08/04 05:02:01;;;;;;;;;;;32.40;75.90;;;;;;1892487;74;20502;-78
2021/08/04 05:04:31;;;;;;;;;;;32.40;76.50;;;;;;1852267;77;20293;-78
2021/08/04 05:07:06;;;;;;;;;;;32.20;76.30;;;;;;1850651;77;20203;-79
2021/08/04 05:09:37;;;;;;;;;;;32.20;77.20;;;;;;1852737;76;20277;-78
2021/08/04 05:12:09;;;;;;;;;;;32.00;76.00;;;;;;1857433;77;20250;-78
2021/08/04 05:14:45;;;;;;;;;;;31.80;76.20;;;;;;1856900;77;20713;-78
2021/08/04 05:20:15;;;;;;;;;;;31.60;78.00;;;;;;1793941;78;20248;-78
2021/08/04 05:22:45;;;;;;;;;;;31.50;78.40;;;;;;1803945;78;20162;-78
2021/08/04 05:25:15;;;;;;;;;;;31.50;78.90;;;;;;1806103;78;20319;-78
2021/08/04 05:27:46;;;;;;;;;;;31.50;79.30;;;;;;1809982;78;20307;-76
2021/08/04 05:30:19;;;;;;;;;;;31.60;78.80;;;;;;1798888;79;20259;-75
2021/08/04 05:32:49;;;;;;;;;;;31.80;78.00;;;;;;1812221;79;20564;-76
2021/08/04 05:35:18;;;;;;;;;;;32.10;77.20;;;;;;1806956;79;20848;-77
2021/08/04 05:37:50;;;;;;;;;;;32.20;77.90;;;;;;1796505;79;20547;-77
2021/08/04 05:40:20;;;;;;;;;;;32.40;76.00;;;;;;1835882;78;20178;-78
2021/08/04 05:42:53;;;;;;;;;;;32.70;76.50;;;;;;1836099;77;20307;-78
2021/08/04 05:45:23;;;;;;;;;;;32.80;73.70;;;;;;1793675;78;20132;-77
2021/08/04 05:47:55;;;;;;;;;;;32.70;72.00;;;;;;1843688;78;20216;-78
2021/08/04 05:50:25;;;;;;;;;;;32.60;71.80;;;;;;1834621;77;20446;-77
2021/08/04 05:53:05;;;;;;;;;;;32.50;72.50;;;;;;1834513;77;20231;-77
2021/08/04 05:55:29;;;;;;;;;;;32.50;73.10;;;;;;1834700;77;20272;-77
2021/08/04 05:57:59;;;;;;;;;;;32.70;74.80;;;;;;1863901;75;20183;-77
2021/08/04 06:00:28;;;;;;;;;;;32.80;75.20;;;;;;1857932;76;20518;-77
2021/08/04 06:02:59;;;;;;;;;;;32.90;74.00;;;;;;1853377;77;20447;-75
2021/08/04 06:05:28;;;;;;;;;;;33.00;72.50;;;;;;1857332;77;20416;-77
2021/08/04 06:08:01;;;;;;;;;;;32.90;73.50;;;;;;1845529;77;20233;-76
2021/08/04 06:10:31;;;;;;;;;;;32.90;73.70;;;;;;1841437;77;20209;-76
2021/08/04 06:13:00;;;;;;;;;;;33.10;74.00;;;;;;1840650;77;20218;-76
2021/08/04 06:15:31;;;;;;;;;;;33.10;72.80;;;;;;1841821;77;20197;-77
2021/08/04 06:18:12;;;;;;;;;;;33.10;72.60;;;;;;1854472;77;20436;-76
2021/08/04 06:20:45;;;;;;;;;;;33.10;73.00;;;;;;1843276;77;20404;-75
2021/08/04 06:23:15;;;;;;;;;;;33.00;72.80;;;;;;1863489;75;20244;-76
2021/08/04 06:25:46;;;;;;;;;;;32.90;72.70;;;;;;1851759;77;20266;-76
2021/08/04 06:28:17;;;;;;;;;;;32.80;72.90;;;;;;1854305;77;20166;-76
2021/08/04 06:30:46;;;;;;;;;;;32.60;74.30;;;;;;1862957;76;20214;-76
2021/08/04 06:33:16;;;;;;;;;;;32.60;74.10;;;;;;1858004;76;20312;-77
2021/08/04 06:35:47;;;;;;;;;;;32.60;74.80;;;;;;1828191;76;20135;-76
2021/08/04 06:38:18;;;;;;;;;;;32.60;74.80;;;;;;1855401;76;20223;-77
2021/08/04 06:40:48;;;;;;;;;;;32.60;74.40;;;;;;1855010;76;20256;-77
2021/08/04 06:43:17;;;;;;;;;;;32.70;74.20;;;;;;1859132;76;20161;-76
2021/08/04 06:45:47;;;;;;;;;;;32.80;74.30;;;;;;1861211;76;20144;-76
2021/08/04 06:48:17;;;;;;;;;;;32.90;73.90;;;;;;1856672;77;20233;-76
2021/08/04 06:50:48;;;;;;;;;;;32.90;74.40;;;;;;1854028;76;20202;-77
2021/08/04 06:53:18;;;;;;;;;;;32.90;74.20;;;;;;1852174;76;20449;-77
2021/08/04 06:55:47;;;;;;;;;;;32.80;74.30;;;;;;1862385;76;20573;-77
2021/08/04 06:58:17;;;;;;;;;;;32.60;75.00;;;;;;1858633;76;20231;-77
2021/08/04 07:00:46;;;;;;;;;;;32.50;75.70;;;;;;1869093;77;20257;-77
2021/08/04 07:03:17;;;;;;;;;;;32.40;75.70;;;;;;1862832;76;20185;-78
2021/08/04 07:05:49;;;;;;;;;;;32.40;77.50;;;;;;1870614;76;20465;-78
2021/08/04 07:08:19;;;;;;;;;;;32.40;77.10;;;;;;1879722;76;20154;-77
2021/08/04 07:10:50;;;;;;;;;;;32.40;76.60;;;;;;1877171;76;20271;-78
2021/08/04 07:13:25;;;;;;;;;;;32.30;75.90;;;;;;1861048;76;20836;-77
2021/08/04 07:15:58;;;;;;;;;;;32.30;75.70;;;;;;1853957;76;20145;-78
2021/08/04 07:18:28;;;;;;;;;;;32.30;76.90;;;;;;1860879;76;20260;-77
2021/08/04 07:20:57;;;;;;;;;;;32.40;76.20;;;;;;1858750;76;20625;-78
2021/08/04 07:23:27;;;;;;;;;;;32.40;76.20;;;;;;1857154;76;20158;-77
2021/08/04 07:25:59;;;;;;;;;;;32.40;77.30;;;;;;1856914;76;20219;-78
2021/08/04 07:28:31;;;;;;;;;;;32.40;76.80;;;;;;1856443;76;20206;-77
2021/08/04 07:31:05;;;;;;;;;;;32.40;76.50;;;;;;1858804;76;20676;-78
2021/08/04 07:33:39;;;;;;;;;;;32.50;76.60;;;;;;1863169;76;20464;-76
2021/08/04 07:36:12;;;;;;;;;;;32.50;76.80;;;;;;1860888;76;20188;-78
2021/08/04 07:38:42;;;;;;;;;;;32.50;74.80;;;;;;1861495;76;20463;-78
2021/08/04 07:41:13;;;;;;;;;;;32.50;75.80;;;;;;1862903;76;20154;-78
2021/08/04 07:43:44;;;;;;;;;;;32.50;76.40;;;;;;1850250;76;20234;-77
2021/08/04 07:46:14;;;;;;;;;;;32.50;77.10;;;;;;1852816;76;20166;-77
2021/08/04 07:48:44;;;;;;;;;;;32.40;77.70;;;;;;1862989;76;20159;-78
2021/08/04 07:51:21;;;;;;;;;;;32.40;77.80;;;;;;1858114;76;20193;-77
2021/08/04 07:54:00;;;;;;;;;;;32.50;76.60;;;;;;1861513;76;20206;-77
2021/08/04 07:56:30;;;;;;;;;;;32.60;76.50;;;;;;1860466;76;20277;-76
2021/08/04 07:59:02;;;;;;;;;;;32.60;76.90;;;;;;1853165;76;20205;-78
2021/08/04 08:01:30;;;;;;;;;;;32.70;76.30;;;;;;1868386;76;20379;-78
2021/08/04 08:04:00;;;;;;;;;;;32.80;74.80;;;;;;1859920;75;20217;-78
2021/08/04 08:06:30;;;;;;;;;;;32.80;73.80;;;;;;1875197;76;20545;-78
2021/08/04 08:08:59;;;;;;;;;;;32.80;75.20;;;;;;1870797;75;20510;-78
2021/08/04 08:11:32;;;;;;;;;;;32.70;75.90;;;;;;1867508;75;20214;-77
2021/08/04 08:14:06;;;;;;;;;;;32.70;75.90;;;;;;1846934;75;20294;-76
2021/08/04 08:16:36;;;;;;;;;;;32.80;76.20;;;;;;1867855;75;20203;-77
2021/08/04 08:19:09;;;;;;;;;;;32.80;75.20;;;;;;1901444;75;20154;-78
2021/08/04 08:21:42;;;;;;;;;;;32.90;75.40;;;;;;1896538;75;20225;-77
2021/08/04 08:24:12;;;;;;;;;;;32.80;75.70;;;;;;1879524;75;20465;-77
2021/08/04 08:26:42;;;;;;;;;;;32.70;75.60;;;;;;1871943;76;20451;-78
2021/08/04 08:32:35;;;;;;;;;;;32.60;76.10;;;;;;1806039;78;20952;-78
2021/08/04 08:35:14;;;;;;;;;;;32.50;75.90;;;;;;1806667;78;20217;-78
2021/08/04 08:47:26;;;;;;;;;;;32.30;77.30;;;;;;1939128;73;20190;-77
2021/08/04 08:50:18;;;;;;;;;;;32.20;78.20;;;;;;1885434;74;20554;-78
2021/08/04 08:52:48;;;;;;;;;;;32.10;78.40;;;;;;1885735;76;20190;-76
2021/08/04 08:55:18;;;;;;;;;;;32.00;77.80;;;;;;1893604;75;20193;-76
2021/08/04 08:57:48;;;;;;;;;;;32.00;77.50;;;;;;1896658;75;20182;-77
2021/08/04 09:00:18;;;;;;;;;;;31.90;77.40;;;;;;1904153;75;20448;-77
2021/08/04 09:02:47;;;;;;;;;;;31.90;77.30;;;;;;1902645;75;20210;-78
2021/08/04 09:05:18;;;;;;;;;;;31.90;77.80;;;;;;1900039;75;20218;-77
2021/08/04 09:07:48;;;;;;;;;;;31.90;77.60;;;;;;1903491;75;20574;-78
2021/08/04 09:10:19;;;;;;;;;;;31.90;78.10;;;;;;1895313;75;20230;-77
2021/08/04 09:12:50;;;;;;;;;;;32.00;77.20;;;;;;1896016;75;20158;-77
2021/08/04 09:15:21;;;;;;;;;;;32.00;77.10;;;;;;1904617;75;20183;-80
2021/08/04 09:17:53;;;;;;;;;;;32.10;77.20;;;;;;1899369;75;20158;-78
2021/08/04 09:20:25;;;;;;;;;;;32.20;77.20;;;;;;1900650;75;20273;-78
2021/08/04 09:22:55;;;;;;;;;;;32.20;78.10;;;;;;1909655;72;20128;-78
2021/08/04 09:25:28;;;;;;;;;;;32.30;78.80;;;;;;1899767;75;20205;-76
2021/08/04 09:27:59;;;;;;;;;;;32.30;77.90;;;;;;1906858;75;20245;-77
2021/08/04 09:30:35;;;;;;;;;;;32.20;78.10;;;;;;1898169;75;20489;-77
2021/08/04 09:33:04;;;;;;;;;;;32.30;78.50;;;;;;1900786;75;20161;-78
2021/08/04 09:35:35;;;;;;;;;;;32.20;79.00;;;;;;1901896;75;20168;-77
2021/08/04 09:38:06;;;;;;;;;;;32.20;79.30;;;;;;1897772;75;20207;-76
2021/08/04 09:40:36;;;;;;;;;;;32.20;79.60;;;;;;1900243;75;20639;-77
2021/08/04 09:43:06;;;;;;;;;;;32.20;79.30;;;;;;1897261;75;20210;-77
2021/08/04 09:45:37;;;;;;;;;;;32.10;79.40;;;;;;1839104;76;20249;-77
2021/08/04 09:48:08;;;;;;;;;;;32.10;79.90;;;;;;1842127;77;20216;-76
2021/08/04 09:50:39;;;;;;;;;;;32.00;80.20;;;;;;1913040;74;20192;-75
2021/08/04 09:53:09;;;;;;;;;;;31.90;80.50;;;;;;1914154;74;20262;-77
2021/08/04 09:55:39;;;;;;;;;;;31.80;80.90;;;;;;1910011;73;20165;-75
2021/08/04 09:58:10;;;;;;;;;;;31.70;81.60;;;;;;1911314;74;20560;-76
2021/08/04 10:00:41;;;;;;;;;;;31.70;82.00;;;;;;1908155;74;20207;-76
2021/08/04 10:03:12;;;;;;;;;;;31.60;81.80;;;;;;1905786;74;20333;-76
2021/08/04 10:05:44;;;;;;;;;;;31.60;81.70;;;;;;1906547;74;20159;-76
2021/08/04 10:08:15;;;;;;;;;;;31.60;82.10;;;;;;1927435;74;20175;-76
2021/08/04 10:10:51;;;;;;;;;;;31.60;82.50;;;;;;1868355;76;20195;-76
2021/08/04 10:13:22;;;;;;;;;;;31.60;82.20;;;;;;1864166;76;20132;-75
2021/08/04 10:15:58;;;;;;;;;;;31.60;83.70;;;;;;1883501;76;20412;-76
2021/08/04 10:18:26;;;;;;;;;;;31.60;82.80;;;;;;1881740;76;20196;-77
2021/08/04 10:20:57;;;;;;;;;;;31.50;83.60;;;;;;1862003;76;20187;-77
2021/08/04 10:23:27;;;;;;;;;;;31.50;83.60;;;;;;1881817;76;20198;-77
2021/08/04 10:25:58;;;;;;;;;;;31.40;83.80;;;;;;1887737;75;20177;-76
2021/08/04 10:28:29;;;;;;;;;;;31.40;84.00;;;;;;1863762;77;20129;-76
2021/08/04 10:30:59;;;;;;;;;;;31.40;83.90;;;;;;1867274;76;20211;-76
2021/08/04 10:33:29;;;;;;;;;;;31.40;84.40;;;;;;1878242;76;20199;-76
2021/08/04 10:36:00;;;;;;;;;;;31.30;84.50;;;;;;1870704;76;20120;-76
2021/08/04 10:38:30;;;;;;;;;;;31.30;84.50;;;;;;1871921;76;20195;-77
2021/08/04 10:41:01;;;;;;;;;;;31.30;84.80;;;;;;1837366;77;20133;-77
2021/08/04 10:43:32;;;;;;;;;;;31.30;85.10;;;;;;1805126;78;20215;-76
2021/08/04 10:46:02;;;;;;;;;;;31.20;85.30;;;;;;1791427;79;20208;-75
2021/08/04 10:48:33;;;;;;;;;;;31.20;86.30;;;;;;1817353;77;20171;-77
2021/08/04 10:51:04;;;;;;;;;;;31.10;85.70;;;;;;1797572;78;20177;-75
2021/08/04 10:53:33;;;;;;;;;;;31.10;85.80;;;;;;1801182;78;20182;-76
2021/08/04 10:56:16;;;;;;;;;;;31.20;86.10;;;;;;1794059;80;20209;-76
2021/08/04 10:58:46;;;;;;;;;;;31.10;86.00;;;;;;1795474;79;20205;-76
2021/08/04 11:01:17;;;;;;;;;;;31.10;85.80;;;;;;1798245;79;20520;-75
2021/08/04 11:03:47;;;;;;;;;;;31.10;86.20;;;;;;1815406;79;20170;-77
2021/08/04 11:06:17;;;;;;;;;;;31.10;85.80;;;;;;1815246;78;20291;-76
2021/08/04 11:08:47;;;;;;;;;;;31.10;85.70;;;;;;1812507;78;20603;-75
2021/08/04 11:11:18;;;;;;;;;;;31.10;85.90;;;;;;1804583;78;20173;-77
2021/08/04 11:13:56;;;;;;;;;;;31.10;86.00;;;;;;1820711;78;20212;-76
2021/08/04 11:16:27;;;;;;;;;;;31.10;85.80;;;;;;1826848;78;20201;-77
2021/08/04 11:18:58;;;;;;;;;;;31.10;85.80;;;;;;1807006;78;20185;-76
2021/08/04 11:21:28;;;;;;;;;;;31.10;85.20;;;;;;1812834;78;20251;-76
2021/08/04 11:23:59;;;;;;;;;;;31.10;85.20;;;;;;1813308;78;20213;-77
2021/08/04 11:26:30;;;;;;;;;;;31.00;85.30;;;;;;1812973;78;20243;-77
2021/08/04 11:29:00;;;;;;;;;;;31.00;85.20;;;;;;1797828;79;20136;-75
2021/08/04 11:31:30;;;;;;;;;;;31.00;84.90;;;;;;1872856;76;20181;-76
2021/08/04 11:34:03;;;;;;;;;;;31.00;85.10;;;;;;1859544;76;20468;-76
2021/08/04 11:36:33;;;;;;;;;;;31.00;84.30;;;;;;1878396;76;20176;-76
2021/08/04 11:39:04;;;;;;;;;;;31.00;84.20;;;;;;1885328;75;20220;-77
2021/08/04 11:41:34;;;;;;;;;;;30.90;84.20;;;;;;1872626;76;20510;-76
2021/08/04 11:44:05;;;;;;;;;;;30.90;83.90;;;;;;1807621;78;20199;-76
2021/08/04 11:46:36;;;;;;;;;;;30.90;83.50;;;;;;1793341;80;20177;-76
2021/08/04 11:49:08;;;;;;;;;;;30.80;83.50;;;;;;1811914;78;20256;-77
2021/08/04 11:51:39;;;;;;;;;;;30.80;83.80;;;;;;1876356;74;20216;-76
2021/08/04 11:54:09;;;;;;;;;;;30.80;83.80;;;;;;1864993;76;20514;-75
2021/08/04 11:56:40;;;;;;;;;;;30.80;83.70;;;;;;1877010;76;20134;-75
2021/08/04 11:59:11;;;;;;;;;;;30.80;83.90;;;;;;1885346;75;20568;-76
2021/08/04 12:01:41;;;;;;;;;;;30.70;83.70;;;;;;1878126;76;20128;-76
2021/08/04 12:04:12;;;;;;;;;;;30.70;83.90;;;;;;1876262;75;20184;-77
2021/08/04 12:06:42;;;;;;;;;;;30.70;84.00;;;;;;1876458;74;20203;-77
2021/08/04 12:09:13;;;;;;;;;;;30.70;84.50;;;;;;1879358;76;20258;-77
2021/08/04 12:11:43;;;;;;;;;;;30.60;84.50;;;;;;1877696;75;20236;-78
2021/08/04 12:14:15;;;;;;;;;;;30.60;84.80;;;;;;1874571;76;20452;-76
2021/08/04 12:16:46;;;;;;;;;;;30.60;85.00;;;;;;1873128;76;20261;-76
2021/08/04 12:19:17;;;;;;;;;;;30.50;85.30;;;;;;1868696;76;20205;-76
2021/08/04 12:21:47;;;;;;;;;;;30.50;85.50;;;;;;1872601;76;20199;-76
2021/08/04 12:24:17;;;;;;;;;;;30.50;85.60;;;;;;1878401;74;20229;-79
2021/08/04 12:26:47;;;;;;;;;;;30.40;85.90;;;;;;1879792;76;20221;-76
2021/08/04 12:29:18;;;;;;;;;;;30.40;86.20;;;;;;1875845;76;20284;-86
2021/08/04 12:31:49;;;;;;;;;;;30.40;86.50;;;;;;1875186;75;20163;-89
2021/08/04 12:34:21;;;;;;;;;;;30.30;86.40;;;;;;1878441;75;20133;-88
2021/08/04 12:36:54;;;;;;;;;;;30.30;86.70;;;;;;1880452;76;20438;-88
2021/08/04 12:39:23;;;;;;;;;;;30.30;87.20;;;;;;1877165;75;20138;-91
2021/08/04 12:41:54;;;;;;;;;;;30.30;87.40;;;;;;1870722;76;20507;-92
2021/08/04 12:44:24;;;;;;;;;;;30.30;87.60;;;;;;1862840;75;20173;-88
2021/08/04 12:46:57;;;;;;;;;;;30.30;87.80;;;;;;1893832;76;20185;-89
2021/08/04 12:49:29;;;;;;;;;;;30.20;87.80;;;;;;1878749;75;20221;-88
2021/08/04 12:52:00;;;;;;;;;;;30.20;87.90;;;;;;1882544;75;20534;-88
2021/08/04 12:54:31;;;;;;;;;;;30.20;87.70;;;;;;1881434;76;20240;-89
2021/08/04 12:57:01;;;;;;;;;;;30.20;87.70;;;;;;1896889;75;20205;-88
2021/08/04 12:59:35;;;;;;;;;;;30.10;87.90;;;;;;1876684;76;20285;-89
2021/08/04 13:02:07;;;;;;;;;;;30.10;87.90;;;;;;1884115;74;20114;-88
2021/08/04 13:04:41;;;;;;;;;;;30.10;88.00;;;;;;1867766;74;20171;-89
2021/08/04 13:07:11;;;;;;;;;;;30.10;87.90;;;;;;1869543;75;20128;-89
2021/08/04 13:09:42;;;;;;;;;;;30.10;88.00;;;;;;1879681;75;20197;-90
2021/08/04 13:12:22;;;;;;;;;;;30.00;87.90;;;;;;1871566;75;20160;-88
2021/08/04 13:14:55;;;;;;;;;;;30.00;87.80;;;;;;1876993;76;20208;-90
2021/08/04 13:17:26;;;;;;;;;;;30.00;87.90;;;;;;1837947;77;20181;-90
2021/08/04 13:19:56;;;;;;;;;;;30.00;87.90;;;;;;1808907;77;20128;-90
2021/08/04 13:22:26;;;;;;;;;;;30.00;87.90;;;;;;1846697;78;20182;-87
2021/08/04 13:27:34;;;;;;;;;;;30.00;88.00;;;;;;1816487;78;20246;-89
2021/08/04 13:36:18;;;;;;;;;;;29.90;88.00;;;;;;1560502;83;20241;-88
2021/08/04 13:36:29;;;;;;;;;;;29.90;88.00;;;;;;1753545;80;20228;-89
2021/08/04 13:38:50;;;;;;;;;;;29.90;88.10;;;;;;1792033;78;20310;-87
2021/08/04 13:41:20;;;;;;;;;;;30.00;88.30;;;;;;1812456;78;20316;-90
2021/08/04 13:43:50;;;;;;;;;;;29.90;88.10;;;;;;1812236;78;20459;-89
2021/08/04 13:46:21;;;;;;;;;;;29.90;88.30;;;;;;1799661;79;20171;-89
2021/08/04 13:48:51;;;;;;;;;;;29.90;88.40;;;;;;1791783;79;20253;-89
2021/08/04 13:51:20;;;;;;;;;;;29.90;88.60;;;;;;1767382;80;20199;-89
2021/08/04 13:53:52;;;;;;;;;;;29.90;88.80;;;;;;1759678;80;20227;-89
2021/08/04 13:56:21;;;;;;;;;;;29.90;88.70;;;;;;1769051;80;20344;-90
2021/08/04 13:58:52;;;;;;;;;;;29.90;88.90;;;;;;1768253;80;20242;-89
2021/08/04 14:01:23;;;;;;;;;;;29.90;88.90;;;;;;1764781;80;20166;-89
2021/08/04 14:03:54;;;;;;;;;;;29.90;88.90;;;;;;1764531;80;20189;-88
2021/08/04 14:06:27;;;;;;;;;;;29.90;89.00;;;;;;1781900;80;20207;-88
2021/08/04 14:08:57;;;;;;;;;;;29.90;89.20;;;;;;1780026;80;20225;-89
2021/08/04 14:11:26;;;;;;;;;;;29.90;89.30;;;;;;1784396;79;20210;-90
2021/08/04 14:13:56;;;;;;;;;;;29.80;89.30;;;;;;1787062;79;20253;-87
2021/08/04 14:16:29;;;;;;;;;;;29.80;89.50;;;;;;1797701;79;20201;-90
2021/08/04 14:19:01;;;;;;;;;;;29.80;89.50;;;;;;1757373;79;20251;-89
2021/08/04 14:21:30;;;;;;;;;;;29.80;89.60;;;;;;1845695;77;20187;-90
2021/08/04 14:24:00;;;;;;;;;;;29.80;89.60;;;;;;1841452;76;20238;-89
2021/08/04 14:26:29;;;;;;;;;;;29.80;89.90;;;;;;1845607;77;20221;-89
2021/08/04 14:28:59;;;;;;;;;;;29.80;90.00;;;;;;1844289;77;20312;-90
2021/08/04 14:34:53;;;;;;;;;;;29.80;90.10;;;;;;1695242;83;20220;-90
2021/08/04 14:37:45;;;;;;;;;;;29.80;90.00;;;;;;1769379;77;20206;-89
2021/08/04 14:40:12;;;;;;;;;;;29.70;90.10;;;;;;1848154;77;20245;-89
2021/08/04 14:42:44;;;;;;;;;;;29.70;90.20;;;;;;1844677;77;20291;-90
2021/08/04 14:45:15;;;;;;;;;;;29.70;90.20;;;;;;1843666;77;20201;-90
2021/08/04 14:47:46;;;;;;;;;;;29.70;90.30;;;;;;1845855;77;20198;-90
2021/08/04 14:50:16;;;;;;;;;;;29.60;90.30;;;;;;1862631;76;20175;-90
2021/08/04 14:52:45;;;;;;;;;;;29.60;90.30;;;;;;1869403;76;20174;-90
2021/08/04 14:55:15;;;;;;;;;;;29.50;90.40;;;;;;1871774;76;20174;-89
2021/08/04 14:57:47;;;;;;;;;;;29.60;90.50;;;;;;1856645;76;20161;-89
2021/08/04 15:00:17;;;;;;;;;;;29.50;90.60;;;;;;1868723;76;20190;-90
2021/08/04 15:02:47;;;;;;;;;;;29.50;90.60;;;;;;1866131;76;20483;-90
2021/08/04 15:05:21;;;;;;;;;;;29.50;90.70;;;;;;1865791;76;20164;-90
2021/08/04 15:07:52;;;;;;;;;;;29.50;90.80;;;;;;1865849;76;20174;-91
2021/08/04 15:10:22;;;;;;;;;;;29.40;90.80;;;;;;1865273;75;20201;-89